Time;durP1;ratioP1;P1;durP2;ratioP2;P2;SDS_P1;SDS_P2;PMS_P1;PMS_P2;Temp;Humidity;BMP_temperature;BMP_pressure;BME280_temperature;BME280_humidity;BME280_pressure;Samples;Min_cycle;Max_cycle;Signal;HPM_P1;HPM_P2
2022/03/09 00:00:41;;;;;;;9.80;4.33;;;-0.50;97.30;;;;;;5030964;28;20228;-89
2022/03/09 00:03:07;;;;;;;11.53;5.10;;;-0.60;97.30;;;;;;5030948;28;20187;-89
2022/03/09 00:05:33;;;;;;;11.00;4.40;;;-0.60;97.30;;;;;;5031098;28;20658;-89
2022/03/09 00:08:01;;;;;;;6.60;3.97;;;-0.60;97.30;;;;;;5031422;28;20169;-90
2022/03/09 00:10:27;;;;;;;9.90;5.00;;;-0.60;97.30;;;;;;5031350;28;21392;-89
2022/03/09 00:12:53;;;;;;;10.23;5.40;;;-0.70;97.30;;;;;;5031328;28;20455;-87
2022/03/09 00:15:19;;;;;;;7.63;4.77;;;-0.70;97.30;;;;;;5031017;28;20180;-89
2022/03/09 00:17:44;;;;;;;8.27;4.53;;;-0.80;97.30;;;;;;5031480;28;20472;-88
2022/03/09 00:20:10;;;;;;;14.27;5.17;;;-0.80;97.30;;;;;;5031082;28;20218;-89
2022/03/09 00:22:36;;;;;;;15.40;5.90;;;-0.80;97.30;;;;;;5031118;28;20651;-89
2022/03/09 00:25:02;;;;;;;6.20;4.73;;;-0.80;97.30;;;;;;5032589;28;20407;-88
2022/03/09 00:27:29;;;;;;;13.67;6.00;;;-0.80;97.30;;;;;;5031082;28;20201;-89
2022/03/09 00:29:55;;;;;;;9.27;5.70;;;-0.80;97.30;;;;;;5030915;28;20994;-88
2022/03/09 00:32:20;;;;;;;10.63;5.67;;;-0.90;97.30;;;;;;5031103;28;20498;-89
2022/03/09 00:34:46;;;;;;;11.10;5.10;;;-0.90;97.30;;;;;;5031661;28;20211;-89
2022/03/09 00:37:11;;;;;;;9.73;4.77;;;-0.90;97.30;;;;;;5031277;28;20189;-89
2022/03/09 00:39:37;;;;;;;19.03;5.03;;;-0.90;97.30;;;;;;5030746;28;20552;-89
2022/03/09 00:42:03;;;;;;;8.23;5.33;;;-0.90;97.30;;;;;;5049689;28;20703;-89
2022/03/09 00:44:30;;;;;;;9.37;4.50;;;-0.90;97.30;;;;;;5050384;28;20190;-89
2022/03/09 00:46:56;;;;;;;8.57;4.83;;;-0.90;97.30;;;;;;5033008;28;20668;-89
2022/03/09 00:49:22;;;;;;;11.10;4.80;;;-0.90;97.30;;;;;;5030676;28;20941;-88
2022/03/09 00:51:50;;;;;;;9.20;5.27;;;-0.90;97.30;;;;;;5030701;28;20802;-89
2022/03/09 00:54:15;;;;;;;10.47;5.80;;;-1.00;97.30;;;;;;5030790;28;20196;-90
2022/03/09 00:56:41;;;;;;;17.23;5.80;;;-1.00;97.30;;;;;;5030561;28;20606;-90
2022/03/09 00:59:07;;;;;;;7.50;4.60;;;-1.00;97.30;;;;;;5032104;28;20203;-89
2022/03/09 01:01:32;;;;;;;11.23;5.80;;;-1.00;97.30;;;;;;5030825;28;20236;-89
2022/03/09 01:03:58;;;;;;;9.07;5.40;;;-1.00;97.30;;;;;;5030584;28;20187;-90
2022/03/09 01:06:23;;;;;;;8.17;4.90;;;-1.10;97.30;;;;;;5030440;28;20419;-89
2022/03/09 01:08:49;;;;;;;8.73;4.87;;;-1.10;97.30;;;;;;5030512;28;20940;-90
2022/03/09 01:11:15;;;;;;;11.33;5.13;;;-1.10;97.30;;;;;;5030433;28;20200;-90
2022/03/09 01:13:40;;;;;;;8.93;5.43;;;-1.20;97.30;;;;;;5030827;28;20204;-89
2022/03/09 01:16:09;;;;;;;8.63;4.57;;;-1.20;97.30;;;;;;5030474;28;20180;-89
2022/03/09 01:18:34;;;;;;;9.57;5.33;;;-1.20;97.30;;;;;;5030463;28;20177;-90
2022/03/09 01:21:00;;;;;;;12.43;5.80;;;-1.20;97.30;;;;;;5030337;28;20435;-88
2022/03/09 01:23:25;;;;;;;11.00;5.27;;;-1.20;97.30;;;;;;5030578;28;20176;-90
2022/03/09 01:25:52;;;;;;;8.03;4.63;;;-1.20;97.30;;;;;;5031504;28;20180;-90
2022/03/09 01:28:18;;;;;;;7.43;5.17;;;-1.30;97.30;;;;;;5031399;28;20180;-89
2022/03/09 01:30:43;;;;;;;10.83;6.53;;;-1.30;97.30;;;;;;5034233;28;20496;-88
2022/03/09 01:33:09;;;;;;;11.47;5.60;;;-1.30;97.30;;;;;;5034452;28;20541;-89
2022/03/09 01:35:34;;;;;;;12.37;5.13;;;-1.40;97.30;;;;;;5034519;28;20173;-89
2022/03/09 01:38:00;;;;;;;11.77;5.40;;;-1.40;97.30;;;;;;5034347;28;20183;-89
2022/03/09 01:40:25;;;;;;;10.87;5.70;;;-1.50;97.30;;;;;;5034397;28;20923;-89
2022/03/09 01:42:51;;;;;;;11.67;5.70;;;-1.50;97.30;;;;;;5034305;28;20694;-88
2022/03/09 01:45:18;;;;;;;10.60;4.97;;;-1.50;97.30;;;;;;5034334;28;20214;-89
2022/03/09 01:47:44;;;;;;;7.80;4.90;;;-1.50;97.30;;;;;;5034208;28;20263;-88
2022/03/09 01:50:10;;;;;;;7.50;4.70;;;-1.50;97.30;;;;;;5033734;28;21042;-90
2022/03/09 01:52:36;;;;;;;14.20;5.30;;;-1.50;97.30;;;;;;5034154;28;20199;-89
2022/03/09 01:55:03;;;;;;;8.53;4.83;;;-1.50;97.30;;;;;;5034787;28;20230;-89
2022/03/09 01:57:30;;;;;;;10.10;5.63;;;-1.50;97.30;;;;;;5034016;28;20418;-89
2022/03/09 01:59:56;;;;;;;8.97;5.43;;;-1.50;97.30;;;;;;5033716;28;20506;-89
2022/03/09 02:02:22;;;;;;;7.57;6.00;;;-1.60;97.30;;;;;;5035115;28;20469;-89
2022/03/09 02:04:48;;;;;;;8.07;5.23;;;-1.60;97.30;;;;;;5033990;28;20431;-89
2022/03/09 02:07:14;;;;;;;10.77;4.70;;;-1.70;97.30;;;;;;5035494;28;20169;-89
2022/03/09 02:09:46;;;;;;;9.40;5.10;;;-1.70;97.30;;;;;;5034227;28;20471;-89
2022/03/09 02:12:17;;;;;;;13.27;6.00;;;-1.70;97.30;;;;;;5035665;28;20461;-90
2022/03/09 02:14:46;;;;;;;13.87;6.30;;;-1.70;97.30;;;;;;5033703;28;20527;-90
2022/03/09 02:17:26;;;;;;;15.07;6.30;;;-1.80;97.30;;;;;;5034182;28;20412;-89
2022/03/09 02:19:53;;;;;;;12.30;6.03;;;-1.80;97.30;;;;;;5033871;28;20492;-89
2022/03/09 02:22:32;;;;;;;11.90;6.13;;;-1.90;97.30;;;;;;5033949;28;20948;-89
2022/03/09 02:24:59;;;;;;;13.10;6.10;;;-2.00;97.30;;;;;;5035140;28;20822;-89
2022/03/09 02:27:25;;;;;;;8.50;5.90;;;-2.10;97.30;;;;;;5033934;28;21017;-89
2022/03/09 02:29:51;;;;;;;11.17;5.60;;;-2.10;97.30;;;;;;5034014;28;20558;-89
2022/03/09 02:32:17;;;;;;;17.00;6.17;;;-2.10;97.30;;;;;;5033781;28;20225;-89
2022/03/09 02:34:43;;;;;;;12.10;6.00;;;-2.10;97.30;;;;;;5033487;28;20550;-89
2022/03/09 02:37:11;;;;;;;12.13;6.10;;;-2.10;97.30;;;;;;5033337;28;20915;-90
2022/03/09 02:39:51;;;;;;;12.50;6.90;;;-2.00;97.30;;;;;;5033777;28;20439;-89
2022/03/09 02:42:22;;;;;;;9.20;5.60;;;-2.00;97.30;;;;;;5038132;28;20411;-90
2022/03/09 02:44:50;;;;;;;11.50;5.87;;;-2.00;97.30;;;;;;5036141;28;20569;-90
2022/03/09 02:47:23;;;;;;;15.60;6.70;;;-2.00;97.30;;;;;;5035438;28;20948;-90
2022/03/09 02:49:52;;;;;;;11.07;7.13;;;-2.00;97.30;;;;;;5031146;28;20440;-91
2022/03/09 02:52:20;;;;;;;14.33;5.87;;;-2.00;97.30;;;;;;5015658;28;20479;-90
2022/03/09 02:54:54;;;;;;;12.83;7.07;;;-2.00;97.30;;;;;;5014339;28;20452;-91
2022/03/09 02:57:22;;;;;;;10.43;6.93;;;-2.00;97.30;;;;;;5015264;28;20511;-90
2022/03/09 02:59:51;;;;;;;14.93;6.07;;;-2.00;97.30;;;;;;4999754;28;20471;-90
2022/03/09 03:02:24;;;;;;;16.27;6.60;;;-2.00;97.30;;;;;;5020981;28;20418;-90
2022/03/09 03:04:52;;;;;;;12.97;6.47;;;-2.10;97.30;;;;;;5034779;28;20432;-90
2022/03/09 03:07:20;;;;;;;13.00;6.67;;;-2.10;97.30;;;;;;5034452;28;20523;-90
2022/03/09 03:09:51;;;;;;;13.53;6.30;;;-2.10;97.30;;;;;;5034916;28;20980;-91
2022/03/09 03:12:25;;;;;;;30.97;6.93;;;-2.10;97.30;;;;;;5034751;28;20425;-91
2022/03/09 03:14:53;;;;;;;11.30;5.30;;;-2.10;97.30;;;;;;5034287;28;20447;-90
2022/03/09 03:17:21;;;;;;;10.37;6.00;;;-2.10;97.30;;;;;;5034889;28;20477;-90
2022/03/09 03:19:51;;;;;;;12.40;5.33;;;-2.10;97.30;;;;;;5032472;28;20439;-91
2022/03/09 03:22:21;;;;;;;10.13;6.47;;;-2.10;97.30;;;;;;5032045;28;20441;-92
2022/03/09 03:24:49;;;;;;;10.17;5.73;;;-2.10;97.30;;;;;;5032260;28;20419;-90
2022/03/09 03:27:14;;;;;;;12.50;6.23;;;-2.10;97.30;;;;;;5032176;28;20419;-91
2022/03/09 03:29:42;;;;;;;12.90;5.90;;;-2.20;97.30;;;;;;5032477;28;20941;-91
2022/03/09 03:32:11;;;;;;;11.83;6.57;;;-2.20;97.30;;;;;;5032113;28;20195;-90
2022/03/09 03:34:36;;;;;;;12.80;7.00;;;-2.20;97.30;;;;;;5031619;28;20455;-91
2022/03/09 03:37:02;;;;;;;11.27;5.83;;;-2.20;97.30;;;;;;5031932;28;20426;-91
2022/03/09 03:39:30;;;;;;;15.40;7.07;;;-2.20;97.30;;;;;;5032183;28;20208;-90
2022/03/09 03:41:56;;;;;;;19.27;6.80;;;-2.20;97.30;;;;;;5032104;28;20180;-90
2022/03/09 03:44:21;;;;;;;11.17;6.80;;;-2.20;97.30;;;;;;5031803;28;20411;-91
2022/03/09 03:46:46;;;;;;;10.90;5.17;;;-2.20;97.30;;;;;;5032362;28;20196;-91
2022/03/09 03:49:12;;;;;;;12.90;5.67;;;-2.20;97.30;;;;;;5031878;28;20299;-90
2022/03/09 03:51:38;;;;;;;18.07;6.13;;;-2.20;97.30;;;;;;5031417;28;20184;-90
2022/03/09 03:54:03;;;;;;;18.37;7.20;;;-2.20;97.30;;;;;;5031980;28;20214;-90
2022/03/09 03:56:29;;;;;;;13.13;6.40;;;-2.20;97.30;;;;;;5031982;28;20911;-90
2022/03/09 03:58:54;;;;;;;13.80;7.00;;;-2.30;97.30;;;;;;5032220;28;20267;-92
2022/03/09 04:01:20;;;;;;;15.43;7.40;;;-2.20;97.30;;;;;;5031649;28;20319;-89
2022/03/09 04:03:45;;;;;;;22.47;7.67;;;-2.30;97.30;;;;;;5012081;28;20226;-91
2022/03/09 04:06:11;;;;;;;16.80;7.40;;;-2.30;97.30;;;;;;5011802;28;20636;-92
2022/03/09 04:08:36;;;;;;;14.40;7.60;;;-2.30;97.30;;;;;;5012174;28;20169;-91
2022/03/09 04:11:02;;;;;;;22.97;8.50;;;-2.30;97.30;;;;;;5012358;28;20201;-91
2022/03/09 04:13:30;;;;;;;21.17;8.87;;;-2.30;97.30;;;;;;5011820;28;20287;-91
2022/03/09 04:15:55;;;;;;;19.30;9.27;;;-2.30;97.30;;;;;;5012047;28;20180;-91
2022/03/09 04:18:21;;;;;;;14.67;7.30;;;-2.40;97.30;;;;;;5011874;28;20424;-91
2022/03/09 04:20:46;;;;;;;15.33;8.23;;;-2.40;97.30;;;;;;5012028;28;20193;-92
2022/03/09 04:23:12;;;;;;;20.23;6.90;;;-2.40;97.30;;;;;;5011355;28;20880;-91
2022/03/09 04:25:38;;;;;;;22.93;7.07;;;-2.50;97.30;;;;;;5011025;28;20177;-92
2022/03/09 04:28:04;;;;;;;13.67;6.60;;;-2.50;97.30;;;;;;5011629;28;20452;-92
2022/03/09 04:30:32;;;;;;;19.67;6.83;;;-2.50;97.30;;;;;;5011617;28;20844;-92
2022/03/09 04:33:00;;;;;;;11.97;6.33;;;-2.50;97.30;;;;;;5011857;28;20181;-91
2022/03/09 04:35:26;;;;;;;13.10;7.00;;;-2.50;97.30;;;;;;5012396;28;20416;-92
2022/03/09 04:37:52;;;;;;;13.97;5.87;;;-2.50;97.30;;;;;;5011763;28;20423;-91
2022/03/09 04:40:17;;;;;;;12.63;6.70;;;-2.60;97.30;;;;;;5011558;28;20201;-92
2022/03/09 04:42:43;;;;;;;18.47;7.53;;;-2.60;97.30;;;;;;5011636;28;20231;-92
2022/03/09 04:45:09;;;;;;;14.57;6.77;;;-2.60;97.30;;;;;;5011382;28;20184;-91
2022/03/09 04:47:34;;;;;;;13.00;6.13;;;-2.60;97.30;;;;;;5011722;28;20181;-91
2022/03/09 04:50:00;;;;;;;13.47;6.63;;;-2.60;97.30;;;;;;5011463;28;21089;-91
2022/03/09 04:52:26;;;;;;;10.47;6.33;;;-2.60;97.30;;;;;;5011519;28;20181;-91
2022/03/09 04:54:51;;;;;;;12.40;6.30;;;-2.60;97.30;;;;;;5011252;28;20205;-92
2022/03/09 04:57:17;;;;;;;13.13;5.90;;;-2.60;97.30;;;;;;5013262;28;20677;-92
2022/03/09 04:59:43;;;;;;;9.47;6.00;;;-2.60;97.30;;;;;;5013219;28;20717;-94
2022/03/09 05:02:09;;;;;;;11.27;6.03;;;-2.60;97.30;;;;;;5020251;28;20478;-92
2022/03/09 05:04:35;;;;;;;14.13;6.40;;;-2.60;97.30;;;;;;5042755;28;20271;-93
2022/03/09 05:07:00;;;;;;;14.03;6.60;;;-2.70;97.30;;;;;;5025341;28;20507;-92
2022/03/09 05:09:26;;;;;;;15.50;6.40;;;-2.70;97.30;;;;;;5019669;28;20189;-92
2022/03/09 05:11:51;;;;;;;13.40;6.30;;;-2.70;97.30;;;;;;5040779;28;20245;-92
2022/03/09 05:14:17;;;;;;;11.43;6.00;;;-2.70;97.30;;;;;;5025898;28;20258;-93
2022/03/09 05:16:42;;;;;;;12.63;6.13;;;-2.70;97.30;;;;;;5032798;28;20223;-92
2022/03/09 05:19:08;;;;;;;12.00;6.80;;;-2.70;97.30;;;;;;5032787;28;20659;-92
2022/03/09 05:21:33;;;;;;;14.73;5.90;;;-2.70;97.30;;;;;;5033199;28;20258;-92
2022/03/09 05:23:59;;;;;;;14.07;6.67;;;-2.70;97.30;;;;;;5032891;28;20173;-92
2022/03/09 05:26:24;;;;;;;16.07;6.93;;;-2.70;97.30;;;;;;5041187;28;20191;-92
2022/03/09 05:28:51;;;;;;;13.30;6.77;;;-2.70;97.30;;;;;;5036036;28;20185;-92
2022/03/09 05:31:17;;;;;;;12.10;6.53;;;-2.80;97.30;;;;;;5029287;28;20221;-92
2022/03/09 05:33:43;;;;;;;21.97;7.80;;;-2.80;97.30;;;;;;5029844;28;20472;-93
2022/03/09 05:36:08;;;;;;;12.20;6.43;;;-2.80;97.30;;;;;;5032875;28;20453;-93
2022/03/09 05:38:34;;;;;;;21.97;6.90;;;-2.90;97.30;;;;;;5032401;28;20551;-92
2022/03/09 05:40:59;;;;;;;12.23;5.53;;;-2.90;97.30;;;;;;5032254;28;20207;-92
2022/03/09 05:43:25;;;;;;;15.03;6.40;;;-2.90;97.30;;;;;;5032949;28;20283;-92
2022/03/09 05:45:50;;;;;;;12.10;6.63;;;-2.90;97.30;;;;;;5033002;28;20176;-93
2022/03/09 05:48:23;;;;;;;14.60;6.70;;;-2.90;97.30;;;;;;5034085;28;20713;-93
2022/03/09 05:50:48;;;;;;;10.90;5.70;;;-2.90;97.30;;;;;;5032935;28;20197;-90
2022/03/09 05:53:14;;;;;;;16.83;6.60;;;-2.90;97.30;;;;;;5032672;28;20458;-91
2022/03/09 05:55:39;;;;;;;15.40;7.33;;;-2.80;97.30;;;;;;5032882;28;20662;-90
2022/03/09 05:58:05;;;;;;;22.30;7.23;;;-2.90;97.30;;;;;;5033579;28;20227;-91
2022/03/09 06:00:30;;;;;;;14.40;6.10;;;-2.80;97.30;;;;;;5033070;28;20753;-90
2022/03/09 06:02:56;;;;;;;11.50;6.63;;;-2.80;97.30;;;;;;5033478;28;20169;-90
2022/03/09 06:05:22;;;;;;;15.80;7.03;;;-2.80;97.30;;;;;;5033461;28;20185;-89
2022/03/09 06:07:48;;;;;;;12.90;6.23;;;-2.80;97.30;;;;;;5039494;28;20175;-90
2022/03/09 06:10:13;;;;;;;15.77;7.00;;;-2.70;97.30;;;;;;5046373;28;20195;-90
2022/03/09 06:12:39;;;;;;;14.27;6.87;;;-2.70;97.30;;;;;;5049689;28;20518;-90
2022/03/09 06:15:05;;;;;;;17.33;8.23;;;-2.70;97.30;;;;;;5042296;28;20204;-90
2022/03/09 06:17:30;;;;;;;11.83;6.67;;;-2.70;97.30;;;;;;5023756;28;20192;-90
2022/03/09 06:19:56;;;;;;;16.20;7.30;;;-2.60;97.30;;;;;;5016286;28;21017;-91
2022/03/09 06:22:21;;;;;;;16.73;7.63;;;-2.60;97.30;;;;;;5037190;28;20196;-90
2022/03/09 06:24:47;;;;;;;15.70;7.83;;;-2.60;97.30;;;;;;5039497;28;20270;-91
2022/03/09 06:27:12;;;;;;;12.33;6.97;;;-2.50;97.30;;;;;;5050118;28;20204;-89
2022/03/09 06:29:38;;;;;;;20.20;8.40;;;-2.50;97.30;;;;;;5034966;28;20259;-89
2022/03/09 06:32:04;;;;;;;15.20;8.20;;;-2.40;97.30;;;;;;5026863;28;20189;-89
2022/03/09 06:34:29;;;;;;;22.33;8.10;;;-2.40;97.30;;;;;;5032240;28;20200;-90
2022/03/09 06:36:55;;;;;;;18.23;8.03;;;-2.30;97.30;;;;;;5041234;28;20422;-90
2022/03/09 06:39:20;;;;;;;17.77;7.70;;;-2.20;97.30;;;;;;5036066;28;20200;-89
2022/03/09 06:41:46;;;;;;;20.93;9.00;;;-2.20;97.30;;;;;;5039926;28;20172;-90
2022/03/09 06:44:13;;;;;;;19.33;7.93;;;-2.10;97.30;;;;;;5036566;28;20223;-90
2022/03/09 06:46:40;;;;;;;22.73;8.67;;;-2.10;97.30;;;;;;5025957;28;20424;-89
2022/03/09 06:49:05;;;;;;;18.10;7.83;;;-2.00;97.30;;;;;;5024619;28;20426;-89
2022/03/09 06:51:31;;;;;;;17.47;8.50;;;-1.90;97.30;;;;;;5024883;28;20505;-90
2022/03/09 06:53:57;;;;;;;24.10;8.13;;;-1.80;97.30;;;;;;5030612;28;20299;-89
2022/03/09 06:56:23;;;;;;;15.40;7.27;;;-1.60;97.30;;;;;;5022193;28;20222;-89
2022/03/09 06:58:48;;;;;;;20.20;8.90;;;-1.50;97.30;;;;;;5025262;28;20424;-89
2022/03/09 07:01:14;;;;;;;15.40;7.77;;;-1.40;97.30;;;;;;5025850;28;20589;-89
2022/03/09 07:03:39;;;;;;;19.43;8.40;;;-1.20;97.30;;;;;;5046214;28;20191;-89
2022/03/09 07:06:05;;;;;;;17.00;7.03;;;-1.10;97.30;;;;;;5052355;28;20175;-90
2022/03/09 07:08:31;;;;;;;14.17;7.03;;;-1.00;97.30;;;;;;5051551;28;20284;-89
2022/03/09 07:11:04;;;;;;;16.60;7.00;;;-0.80;97.30;;;;;;5035165;28;20307;-89
2022/03/09 07:13:29;;;;;;;19.60;7.03;;;-0.70;97.30;;;;;;5044144;28;20450;-88
2022/03/09 07:15:55;;;;;;;18.23;7.73;;;-0.50;97.30;;;;;;5055637;28;20926;-90
2022/03/09 07:18:20;;;;;;;13.33;6.33;;;-0.40;97.30;;;;;;5051807;28;20192;-89
2022/03/09 07:20:46;;;;;;;15.90;6.17;;;-0.20;97.30;;;;;;5042692;28;20204;-89
2022/03/09 07:23:12;;;;;;;12.33;6.90;;;-0.10;97.30;;;;;;5041360;28;20180;-89
2022/03/09 07:25:38;;;;;;;15.33;7.03;;;0.00;97.30;;;;;;5040607;28;20172;-88
2022/03/09 07:28:05;;;;;;;13.97;5.83;;;0.20;97.30;;;;;;5019151;28;20428;-89
2022/03/09 07:30:31;;;;;;;16.17;7.53;;;0.30;97.30;;;;;;5025969;28;20452;-89
2022/03/09 07:32:57;;;;;;;13.30;7.30;;;0.50;97.30;;;;;;5020703;28;20420;-85
2022/03/09 07:35:22;;;;;;;12.50;6.60;;;0.60;97.30;;;;;;5018689;28;21219;-86
2022/03/09 07:37:51;;;;;;;12.93;6.90;;;0.80;97.30;;;;;;5029863;28;20179;-86
2022/03/09 07:40:17;;;;;;;15.43;7.43;;;1.00;97.30;;;;;;5019167;28;21060;-85
2022/03/09 07:42:43;;;;;;;12.90;7.60;;;1.10;97.30;;;;;;5027390;28;20518;-86
2022/03/09 07:45:09;;;;;;;14.83;7.50;;;1.30;97.30;;;;;;5032251;28;20502;-87
2022/03/09 07:47:36;;;;;;;14.77;7.43;;;1.50;97.30;;;;;;5035774;28;20420;-87
2022/03/09 07:50:03;;;;;;;23.70;8.60;;;1.70;97.30;;;;;;5012642;28;20439;-86
2022/03/09 07:52:28;;;;;;;18.47;7.67;;;1.90;97.30;;;;;;5013336;28;20499;-86
2022/03/09 07:54:54;;;;;;;15.63;8.50;;;2.00;97.30;;;;;;5012952;28;20546;-87
2022/03/09 07:57:19;;;;;;;13.80;7.30;;;2.20;97.30;;;;;;5023681;28;20178;-87
2022/03/09 07:59:45;;;;;;;13.53;7.10;;;2.40;97.30;;;;;;5052334;28;20318;-85
2022/03/09 08:02:11;;;;;;;16.03;7.83;;;2.50;97.30;;;;;;5052409;28;20646;-86
2022/03/09 08:04:36;;;;;;;15.33;7.13;;;2.70;97.30;;;;;;5031491;28;20177;-87
2022/03/09 08:07:02;;;;;;;19.93;7.73;;;2.80;97.30;;;;;;5032344;28;20172;-88
2022/03/09 08:09:28;;;;;;;16.23;8.43;;;3.10;97.30;;;;;;5032333;28;20176;-87
2022/03/09 08:11:54;;;;;;;15.10;7.40;;;3.20;96.80;;;;;;5034540;28;20270;-87
2022/03/09 08:14:19;;;;;;;16.93;8.77;;;3.40;96.60;;;;;;5031517;28;20661;-87
2022/03/09 08:16:45;;;;;;;19.90;8.57;;;3.60;96.40;;;;;;5032066;28;20179;-87
2022/03/09 08:19:10;;;;;;;25.07;8.13;;;3.80;96.50;;;;;;5031754;28;20294;-87
2022/03/09 08:21:36;;;;;;;18.37;8.20;;;3.90;95.50;;;;;;5033723;28;20797;-87
2022/03/09 08:24:02;;;;;;;14.50;8.20;;;4.10;94.80;;;;;;5046672;28;20310;-87
2022/03/09 08:26:27;;;;;;;21.10;8.60;;;4.30;94.50;;;;;;5032004;28;20878;-87
2022/03/09 08:28:53;;;;;;;15.83;8.30;;;4.40;95.10;;;;;;5016821;28;20216;-88
2022/03/09 08:31:19;;;;;;;17.77;7.93;;;4.60;93.60;;;;;;5045379;28;20222;-87
2022/03/09 08:33:44;;;;;;;14.53;7.90;;;4.70;93.20;;;;;;5045591;28;20211;-88
2022/03/09 08:36:11;;;;;;;17.13;7.70;;;4.90;92.40;;;;;;5019253;28;20687;-88
2022/03/09 08:38:37;;;;;;;16.67;8.10;;;5.10;93.00;;;;;;5044760;28;20176;-88
2022/03/09 08:41:03;;;;;;;21.37;8.23;;;5.30;92.20;;;;;;5036192;28;20497;-88
2022/03/09 08:43:28;;;;;;;14.70;7.70;;;5.50;91.30;;;;;;5011932;28;20185;-88
2022/03/09 08:45:54;;;;;;;16.53;8.03;;;5.60;90.90;;;;;;5012022;28;20182;-87
2022/03/09 08:48:19;;;;;;;16.53;8.00;;;5.80;90.00;;;;;;5024008;28;20168;-88
2022/03/09 08:50:45;;;;;;;16.10;7.57;;;5.90;88.30;;;;;;5048310;28;20219;-88
2022/03/09 08:53:10;;;;;;;17.93;8.20;;;6.00;88.00;;;;;;5027081;28;20798;-87
2022/03/09 08:55:36;;;;;;;17.00;7.63;;;6.30;87.30;;;;;;5012031;28;20177;-88
2022/03/09 08:58:02;;;;;;;15.50;7.87;;;6.40;86.20;;;;;;5011891;28;20240;-87
2022/03/09 09:00:28;;;;;;;15.03;7.37;;;6.50;84.70;;;;;;5012062;28;20232;-87
2022/03/09 09:02:55;;;;;;;15.80;7.57;;;6.60;84.30;;;;;;5012282;28;20834;-87
2022/03/09 09:05:20;;;;;;;15.70;7.80;;;6.80;85.20;;;;;;5013587;28;20227;-87
2022/03/09 09:07:46;;;;;;;13.10;7.00;;;7.00;85.90;;;;;;5011521;28;20424;-87
2022/03/09 09:10:12;;;;;;;14.70;6.80;;;7.20;84.80;;;;;;5025840;28;20852;-85
2022/03/09 09:12:40;;;;;;;15.23;8.10;;;7.40;83.90;;;;;;5043580;28;20191;-87
2022/03/09 09:15:14;;;;;;;11.30;6.90;;;7.50;82.40;;;;;;5052711;28;20238;-87
2022/03/09 09:17:42;;;;;;;15.50;8.00;;;7.70;81.80;;;;;;5053242;28;20404;-87
2022/03/09 09:20:11;;;;;;;16.60;8.70;;;7.90;82.20;;;;;;5013878;28;20443;-86
2022/03/09 09:22:42;;;;;;;12.67;6.83;;;8.00;80.80;;;;;;5031723;28;20412;-86
2022/03/09 09:25:11;;;;;;;17.43;7.50;;;8.20;79.80;;;;;;5031622;28;20465;-86
2022/03/09 09:27:37;;;;;;;12.30;6.63;;;8.30;79.20;;;;;;5031465;28;20425;-86
2022/03/09 09:30:03;;;;;;;19.83;8.00;;;8.40;79.20;;;;;;5031390;28;20526;-86
2022/03/09 09:32:28;;;;;;;14.60;7.40;;;8.40;78.90;;;;;;5031464;28;20468;-86
2022/03/09 09:34:54;;;;;;;14.20;7.47;;;8.60;78.90;;;;;;5032228;28;20849;-88
2022/03/09 09:37:19;;;;;;;14.73;8.13;;;8.70;78.70;;;;;;5032845;28;20172;-86
2022/03/09 09:39:45;;;;;;;15.77;7.00;;;8.70;78.70;;;;;;5031588;28;20199;-86
2022/03/09 09:42:11;;;;;;;19.50;6.83;;;8.90;79.80;;;;;;5032463;28;20169;-86
2022/03/09 09:44:41;;;;;;;15.77;7.47;;;9.00;80.00;;;;;;5034153;28;21129;-86
2022/03/09 09:47:08;;;;;;;14.93;6.93;;;9.20;80.30;;;;;;5050640;28;20213;-86
2022/03/09 09:49:37;;;;;;;15.17;7.07;;;9.30;79.70;;;;;;5052676;28;20464;-86
2022/03/09 09:52:04;;;;;;;10.60;6.30;;;9.50;79.00;;;;;;5055185;28;20418;-87
2022/03/09 09:54:30;;;;;;;13.23;6.03;;;9.60;77.50;;;;;;5055430;28;20454;-86
2022/03/09 09:56:55;;;;;;;12.10;6.00;;;9.70;76.90;;;;;;5054780;28;20424;-87
2022/03/09 09:59:21;;;;;;;11.47;5.37;;;9.70;76.40;;;;;;5055888;28;20172;-86
2022/03/09 10:01:46;;;;;;;10.67;5.57;;;9.90;74.80;;;;;;5058532;28;20175;-86
2022/03/09 10:04:12;;;;;;;13.70;6.33;;;9.90;74.90;;;;;;5058445;28;20179;-87
2022/03/09 10:06:38;;;;;;;12.00;5.37;;;10.00;75.50;;;;;;5058673;28;20694;-85
2022/03/09 10:09:09;;;;;;;8.90;5.53;;;10.20;75.70;;;;;;5057962;28;20658;-86
2022/03/09 10:11:43;;;;;;;11.83;6.00;;;10.30;74.50;;;;;;5037121;28;20212;-87
2022/03/09 10:14:09;;;;;;;14.17;6.20;;;10.30;73.80;;;;;;5034624;28;20542;-86
2022/03/09 10:16:34;;;;;;;12.73;6.10;;;10.40;75.00;;;;;;5050765;28;20447;-86
2022/03/09 10:19:01;;;;;;;12.30;6.37;;;10.40;76.30;;;;;;5050009;28;20179;-86
2022/03/09 10:21:28;;;;;;;12.93;6.67;;;10.50;75.70;;;;;;5054711;28;20192;-86
2022/03/09 10:24:06;;;;;;;13.80;6.20;;;10.60;75.60;;;;;;5056961;28;20465;-87
2022/03/09 10:26:40;;;;;;;8.73;5.20;;;10.80;75.30;;;;;;5017643;28;20550;-87
2022/03/09 10:29:11;;;;;;;12.43;5.17;;;10.90;74.20;;;;;;5017604;28;20414;-86
2022/03/09 10:31:38;;;;;;;8.10;6.00;;;11.00;72.70;;;;;;5017558;28;20415;-86
2022/03/09 10:34:17;;;;;;;13.53;5.30;;;11.10;72.60;;;;;;5017683;28;20513;-86
2022/03/09 10:36:54;;;;;;;9.03;5.07;;;11.10;72.10;;;;;;5055788;28;20428;-86
2022/03/09 10:39:21;;;;;;;13.97;5.00;;;11.20;71.00;;;;;;5057571;28;20455;-86
2022/03/09 10:41:46;;;;;;;9.47;5.63;;;11.30;70.50;;;;;;5057574;28;20425;-87
2022/03/09 10:44:13;;;;;;;10.63;5.63;;;11.30;70.40;;;;;;5058075;28;20421;-86
2022/03/09 10:46:48;;;;;;;12.87;5.27;;;11.40;71.00;;;;;;5058773;28;20206;-86
2022/03/09 10:49:19;;;;;;;7.33;4.50;;;11.30;70.90;;;;;;5059515;28;20417;-86
2022/03/09 10:51:57;;;;;;;10.37;5.40;;;11.40;70.30;;;;;;5053055;28;20414;-86
2022/03/09 10:54:26;;;;;;;12.67;5.40;;;11.50;71.10;;;;;;5055392;28;20438;-87
2022/03/09 10:57:11;;;;;;;8.50;5.00;;;11.70;71.00;;;;;;5037886;28;20411;-86
2022/03/09 10:59:52;;;;;;;8.93;4.80;;;11.80;69.70;;;;;;5058793;28;20476;-86
2022/03/09 11:02:23;;;;;;;10.53;5.23;;;11.80;67.50;;;;;;5060806;28;20406;-86
2022/03/09 11:05:24;;;;;;;12.83;5.27;;;11.60;68.40;;;;;;5060584;28;20409;-87
2022/03/09 11:07:50;;;;;;;12.33;5.27;;;11.80;68.10;;;;;;4976895;28;20425;-86
2022/03/09 11:10:16;;;;;;;6.67;4.57;;;11.90;68.50;;;;;;5018803;28;20812;-87
2022/03/09 11:12:42;;;;;;;8.30;4.97;;;12.00;68.90;;;;;;5041347;28;20194;-87
2022/03/09 11:15:08;;;;;;;6.73;4.23;;;12.20;69.00;;;;;;5056768;28;20992;-86
2022/03/09 11:17:34;;;;;;;6.73;4.43;;;12.30;67.70;;;;;;5057423;28;20266;-87
2022/03/09 11:20:00;;;;;;;11.47;4.77;;;12.30;67.30;;;;;;5056452;28;20463;-87
2022/03/09 11:22:26;;;;;;;9.03;5.10;;;12.50;67.70;;;;;;5056876;28;20415;-87
2022/03/09 11:24:53;;;;;;;12.33;5.23;;;12.60;66.70;;;;;;5057596;28;20417;-85
2022/03/09 11:27:21;;;;;;;11.73;4.97;;;12.60;64.90;;;;;;5074398;28;20244;-87
2022/03/09 11:29:49;;;;;;;12.40;5.40;;;12.70;65.50;;;;;;5074248;28;21284;-86
2022/03/09 11:32:34;;;;;;;14.07;5.30;;;12.80;64.50;;;;;;5055403;28;20429;-86
2022/03/09 11:34:59;;;;;;;6.57;4.93;;;12.70;64.60;;;;;;5056026;28;20449;-87
2022/03/09 11:37:35;;;;;;;11.43;5.40;;;12.70;64.10;;;;;;5026319;28;20422;-86
2022/03/09 11:40:06;;;;;;;9.73;5.03;;;12.70;65.70;;;;;;5034164;28;20326;-86
2022/03/09 11:42:34;;;;;;;5.83;4.00;;;12.70;66.20;;;;;;5016649;28;20426;-86
2022/03/09 11:45:15;;;;;;;6.67;4.23;;;12.90;67.10;;;;;;5051392;28;20425;-87
2022/03/09 11:48:18;;;;;;;6.77;4.33;;;13.00;63.60;;;;;;5037981;28;20410;-86
2022/03/09 11:50:46;;;;;;;8.77;5.03;;;12.80;63.30;;;;;;4943909;28;20481;-87
2022/03/09 11:53:12;;;;;;;9.97;5.13;;;12.70;63.90;;;;;;5019265;28;20431;-86
2022/03/09 11:55:38;;;;;;;9.90;4.63;;;12.60;64.10;;;;;;5034326;28;20408;-86
2022/03/09 11:58:09;;;;;;;8.03;4.30;;;12.60;64.00;;;;;;5054688;28;20475;-87
2022/03/09 12:00:37;;;;;;;9.57;5.47;;;12.60;64.00;;;;;;5055439;28;20376;-84
2022/03/09 12:03:03;;;;;;;8.70;5.10;;;12.60;64.40;;;;;;5073719;28;20406;-86
2022/03/09 12:05:31;;;;;;;11.63;4.80;;;12.70;64.10;;;;;;5052543;28;20424;-86
2022/03/09 12:08:14;;;;;;;8.40;4.83;;;12.80;63.90;;;;;;5041575;28;20420;-86
2022/03/09 12:10:50;;;;;;;12.43;4.97;;;13.10;64.50;;;;;;5015837;28;20492;-87
2022/03/09 12:13:21;;;;;;;8.00;5.00;;;13.40;63.50;;;;;;5035773;28;20484;-87
2022/03/09 12:16:05;;;;;;;11.77;5.00;;;13.70;63.10;;;;;;5035139;28;20425;-86
2022/03/09 12:18:33;;;;;;;7.47;4.40;;;13.80;62.30;;;;;;5034889;28;20487;-86
2022/03/09 12:20:58;;;;;;;19.43;5.23;;;14.00;64.10;;;;;;5034888;28;20449;-86
2022/03/09 12:23:24;;;;;;;6.53;4.40;;;14.30;62.80;;;;;;5035392;28;20920;-86
2022/03/09 12:25:50;;;;;;;7.57;4.43;;;14.50;63.20;;;;;;5035569;28;20180;-86
2022/03/09 12:28:25;;;;;;;9.40;4.63;;;14.50;62.80;;;;;;5035377;28;20230;-87
2022/03/09 12:31:09;;;;;;;11.73;5.10;;;14.60;62.10;;;;;;5035860;28;20716;-86
2022/03/09 12:33:37;;;;;;;10.03;5.20;;;14.70;62.50;;;;;;5035067;28;20484;-87
2022/03/09 12:36:09;;;;;;;15.73;4.90;;;14.90;63.50;;;;;;5035567;28;20505;-86
2022/03/09 12:38:39;;;;;;;10.03;4.97;;;15.10;63.60;;;;;;5035663;28;20745;-86
2022/03/09 12:41:05;;;;;;;6.50;4.40;;;15.30;63.40;;;;;;5035647;28;20474;-86